Time;durP1;ratioP1;P1;durP2;ratioP2;P2;SDS_P1;SDS_P2;PMS_P1;PMS_P2;Temp;Humidity;BMP_temperature;BMP_pressure;BME280_temperature;BME280_humidity;BME280_pressure;Samples;Min_cycle;Max_cycle;Signal;HPM_P1;HPM_P2
2022/12/02 00:02:04;;;;;;;8.02;3.67;;;5.30;91.30;;;;;;5113422;28;20484;-72
2022/12/02 00:04:30;;;;;;;8.05;3.15;;;5.30;91.30;;;;;;5113029;28;20085;-72
2022/12/02 00:06:58;;;;;;;9.73;3.50;;;5.20;91.30;;;;;;5112890;28;20054;-72
2022/12/02 00:09:33;;;;;;;9.00;3.90;;;5.30;91.30;;;;;;5094476;28;20050;-72
2022/12/02 00:12:00;;;;;;;6.78;3.03;;;5.20;91.30;;;;;;5112894;28;20042;-72
2022/12/02 00:14:29;;;;;;;8.10;3.40;;;5.20;91.30;;;;;;5112716;28;20039;-72
2022/12/02 00:16:56;;;;;;;7.00;3.30;;;5.20;91.30;;;;;;5112740;28;20376;-72
2022/12/02 00:19:22;;;;;;;8.00;3.25;;;5.20;91.30;;;;;;5113039;28;20051;-72
2022/12/02 00:21:49;;;;;;;8.25;3.47;;;5.20;91.30;;;;;;5112565;28;20052;-72
2022/12/02 00:24:16;;;;;;;7.80;3.25;;;5.20;91.30;;;;;;5113018;28;20040;-72
2022/12/02 00:26:42;;;;;;;8.35;3.47;;;5.20;91.30;;;;;;5112635;28;20055;-71
2022/12/02 00:29:08;;;;;;;8.07;2.95;;;5.10;91.30;;;;;;5112973;28;20043;-72
2022/12/02 00:31:34;;;;;;;8.18;3.78;;;5.10;91.20;;;;;;5112546;28;20040;-72
2022/12/02 00:34:00;;;;;;;7.15;3.13;;;5.10;91.20;;;;;;5112845;28;20493;-72
2022/12/02 00:36:27;;;;;;;7.15;2.97;;;5.10;91.20;;;;;;5112801;28;20043;-72
2022/12/02 00:38:54;;;;;;;6.88;3.08;;;5.00;91.20;;;;;;5112206;28;20047;-72
2022/12/02 00:41:20;;;;;;;5.88;2.80;;;5.00;91.20;;;;;;5112194;28;20044;-72
2022/12/02 00:46:33;;;;;;;6.53;2.85;;;5.10;91.20;;;;;;5112276;28;20070;-72
2022/12/02 00:49:06;;;;;;;6.32;2.80;;;5.00;91.20;;;;;;5112302;28;20044;-72
2022/12/02 00:51:33;;;;;;;5.30;2.65;;;5.00;91.20;;;;;;5093923;28;20071;-72
2022/12/02 00:53:59;;;;;;;5.07;2.42;;;5.00;91.20;;;;;;5112221;28;20401;-72
2022/12/02 00:56:25;;;;;;;6.32;2.92;;;5.00;91.20;;;;;;5112629;28;20032;-72
2022/12/02 00:58:50;;;;;;;6.15;2.90;;;5.00;91.20;;;;;;5112725;28;20058;-72
2022/12/02 01:01:16;;;;;;;6.72;2.65;;;5.00;91.20;;;;;;5112723;28;20504;-72
2022/12/02 01:03:42;;;;;;;6.70;2.90;;;5.00;91.20;;;;;;5112721;28;20465;-72
2022/12/02 01:06:08;;;;;;;8.18;2.55;;;5.00;91.20;;;;;;5112550;28;20036;-72
2022/12/02 01:08:33;;;;;;;7.28;2.90;;;5.00;91.20;;;;;;5112860;28;20035;-72
2022/12/02 01:10:59;;;;;;;7.43;3.60;;;5.10;91.20;;;;;;5115816;28;20046;-72
2022/12/02 01:13:26;;;;;;;5.47;2.72;;;5.00;91.10;;;;;;5115900;28;20039;-72
2022/12/02 01:15:52;;;;;;;5.93;2.95;;;5.00;91.10;;;;;;5115713;28;20119;-72
2022/12/02 01:18:18;;;;;;;7.38;2.95;;;5.00;91.10;;;;;;5115652;28;20536;-72
2022/12/02 01:20:44;;;;;;;5.45;2.75;;;5.00;91.10;;;;;;5115812;28;20047;-72
2022/12/02 01:23:10;;;;;;;7.18;3.40;;;5.00;91.10;;;;;;5115680;28;20393;-72
2022/12/02 01:25:36;;;;;;;6.72;3.28;;;5.00;91.10;;;;;;5115621;28;20557;-72
2022/12/02 01:28:02;;;;;;;5.80;2.88;;;5.00;91.10;;;;;;5115381;28;20127;-72
2022/12/02 01:30:28;;;;;;;6.97;2.92;;;5.00;91.10;;;;;;5115756;28;20122;-71
2022/12/02 01:32:53;;;;;;;6.68;2.78;;;4.90;91.10;;;;;;5115341;28;20059;-72
2022/12/02 01:35:19;;;;;;;5.60;2.53;;;4.90;91.10;;;;;;5115360;28;20035;-72
2022/12/02 01:37:45;;;;;;;6.90;3.13;;;4.90;91.10;;;;;;5115353;28;20410;-72
2022/12/02 01:40:11;;;;;;;7.07;2.75;;;4.90;91.10;;;;;;5115239;28;20043;-72
2022/12/02 01:42:38;;;;;;;6.20;2.67;;;4.90;91.10;;;;;;5115771;28;20541;-72
2022/12/02 01:45:05;;;;;;;6.80;3.00;;;4.90;91.10;;;;;;5115314;28;20335;-72
2022/12/02 01:47:30;;;;;;;6.60;2.55;;;4.90;91.10;;;;;;5114981;28;20107;-72
2022/12/02 01:49:56;;;;;;;6.60;2.60;;;4.90;91.10;;;;;;5114998;28;20040;-72
2022/12/02 01:52:23;;;;;;;6.65;2.85;;;4.90;91.10;;;;;;5114922;28;20066;-72
2022/12/02 01:54:50;;;;;;;6.55;2.80;;;4.90;91.40;;;;;;5114992;28;20047;-72
2022/12/02 01:57:20;;;;;;;8.35;3.47;;;4.80;91.10;;;;;;5096729;28;20039;-72
2022/12/02 01:59:45;;;;;;;7.82;3.10;;;4.80;91.10;;;;;;5115392;28;20401;-72
2022/12/02 02:02:30;;;;;;;7.35;3.28;;;4.80;91.10;;;;;;5115100;28;20044;-72
2022/12/02 02:04:59;;;;;;;5.47;2.40;;;4.70;91.10;;;;;;5115297;28;20051;-72
2022/12/02 02:07:25;;;;;;;7.25;2.88;;;4.70;91.00;;;;;;5096543;28;20040;-72
2022/12/02 02:09:52;;;;;;;7.20;2.88;;;4.80;91.00;;;;;;5114968;28;20456;-72
2022/12/02 02:12:18;;;;;;;6.22;2.78;;;4.70;91.00;;;;;;5114684;28;20035;-72
2022/12/02 02:14:44;;;;;;;7.22;2.88;;;4.70;91.00;;;;;;5114572;28;20047;-71
2022/12/02 02:17:10;;;;;;;7.53;3.30;;;4.70;91.00;;;;;;5114875;28;20043;-72
2022/12/02 02:19:36;;;;;;;8.82;3.35;;;4.70;91.00;;;;;;5114278;28;20053;-72
2022/12/02 02:22:05;;;;;;;6.32;2.65;;;4.70;91.00;;;;;;5095504;28;20443;-72
2022/12/02 02:24:30;;;;;;;7.80;3.50;;;4.80;91.00;;;;;;5114660;28;20098;-72
2022/12/02 02:26:56;;;;;;;7.15;3.35;;;4.70;91.00;;;;;;5114620;28;20060;-71
2022/12/02 02:29:22;;;;;;;7.22;2.80;;;4.70;91.00;;;;;;5114669;28;20494;-71
2022/12/02 02:31:47;;;;;;;6.22;2.97;;;4.60;91.00;;;;;;5096143;28;20040;-72
2022/12/02 02:34:13;;;;;;;9.10;3.13;;;4.60;91.10;;;;;;5114786;28;20067;-71
2022/12/02 02:36:39;;;;;;;7.72;3.00;;;4.60;91.00;;;;;;5096067;28;20043;-72
2022/12/02 02:39:04;;;;;;;8.63;3.42;;;4.70;91.00;;;;;;5114313;28;20123;-72
2022/12/02 02:41:30;;;;;;;7.60;3.28;;;4.70;91.00;;;;;;5114159;28;20047;-72
2022/12/02 02:43:56;;;;;;;7.32;2.97;;;4.60;90.90;;;;;;5095728;28;20035;-72
2022/12/02 02:46:22;;;;;;;6.88;2.80;;;4.60;90.90;;;;;;5114589;28;20052;-72
2022/12/02 02:48:48;;;;;;;8.25;2.65;;;4.70;91.00;;;;;;5114195;28;20114;-72
2022/12/02 02:51:15;;;;;;;6.50;3.17;;;4.50;90.90;;;;;;5114184;28;20431;-72
2022/12/02 02:53:42;;;;;;;6.70;2.72;;;4.60;90.90;;;;;;5114715;28;20039;-72
2022/12/02 02:56:09;;;;;;;6.60;2.70;;;4.50;90.90;;;;;;5095864;28;20437;-72
2022/12/02 02:58:35;;;;;;;5.72;2.42;;;4.40;90.90;;;;;;5113998;28;20062;-72
2022/12/02 03:01:08;;;;;;;6.88;2.97;;;4.50;90.90;;;;;;5114642;28;20112;-72
2022/12/02 03:03:39;;;;;;;6.28;2.75;;;4.50;91.00;;;;;;5113854;28;20036;-72
2022/12/02 03:06:06;;;;;;;;;;;4.50;91.00;;;;;;5114502;28;20078;-73
2022/12/02 03:08:33;;;;;;;7.53;3.03;;;4.40;90.90;;;;;;5095808;28;20350;-72
2022/12/02 03:11:00;;;;;;;5.57;2.42;;;4.40;90.90;;;;;;5114167;28;20035;-72
2022/12/02 03:13:28;;;;;;;6.07;2.78;;;4.40;90.90;;;;;;5095448;28;20577;-72
2022/12/02 03:15:53;;;;;;;6.30;2.60;;;4.40;90.90;;;;;;5114129;28;20122;-72
2022/12/02 03:18:19;;;;;;;5.43;2.42;;;4.40;90.90;;;;;;5095561;28;20440;-72
2022/12/02 03:20:46;;;;;;;5.85;2.42;;;4.40;90.90;;;;;;5078697;28;20039;-72
2022/12/02 03:23:13;;;;;;;5.15;2.28;;;4.40;90.90;;;;;;5113695;28;20041;-72
2022/12/02 03:25:39;;;;;;;5.30;2.13;;;4.40;90.90;;;;;;5113630;28;20050;-72
2022/12/02 03:28:05;;;;;;;5.22;2.33;;;4.40;90.90;;;;;;5113538;28;20397;-72
2022/12/02 03:30:31;;;;;;;4.25;1.90;;;4.40;90.80;;;;;;5113555;28;20067;-72
2022/12/02 03:32:57;;;;;;;5.45;2.42;;;4.40;90.90;;;;;;5078085;28;20476;-72
2022/12/02 03:35:23;;;;;;;6.55;2.58;;;4.40;90.90;;;;;;5113423;28;20075;-72
2022/12/02 03:37:49;;;;;;;4.63;1.73;;;4.40;90.80;;;;;;5095351;28;20039;-72
2022/12/02 03:40:15;;;;;;;6.18;2.47;;;4.40;90.80;;;;;;5113437;28;20036;-72
2022/12/02 03:42:41;;;;;;;5.63;2.30;;;4.40;90.80;;;;;;5094928;28;20131;-72
2022/12/02 03:45:09;;;;;;;4.15;2.08;;;4.40;91.10;;;;;;5113369;28;20040;-72
2022/12/02 03:47:35;;;;;;;5.32;2.30;;;4.40;90.80;;;;;;5113377;28;20043;-72
2022/12/02 03:50:02;;;;;;;5.65;2.33;;;4.50;90.80;;;;;;5094929;28;20397;-71
2022/12/02 03:52:28;;;;;;;4.90;2.15;;;4.40;90.80;;;;;;5113198;28;20105;-72
2022/12/02 03:54:54;;;;;;;6.72;2.15;;;4.40;90.70;;;;;;5113152;28;20047;-72
2022/12/02 03:57:19;;;;;;;4.20;2.22;;;4.40;90.70;;;;;;5113171;28;20421;-71
2022/12/02 03:59:45;;;;;;;4.78;2.00;;;4.40;90.70;;;;;;5095261;28;20043;-72
2022/12/02 04:02:11;;;;;;;5.53;2.30;;;4.40;90.70;;;;;;5112875;28;20044;-72
2022/12/02 04:04:37;;;;;;;7.53;2.60;;;4.40;90.70;;;;;;5113041;28;20450;-72
2022/12/02 04:07:02;;;;;;;4.80;2.15;;;4.40;90.70;;;;;;5113388;28;20130;-72
2022/12/02 04:09:28;;;;;;;5.10;2.30;;;4.40;90.70;;;;;;5113394;28;20031;-72
2022/12/02 04:11:53;;;;;;;5.40;2.25;;;4.40;90.60;;;;;;5113380;28;20039;-72
2022/12/02 04:14:19;;;;;;;6.47;2.53;;;4.40;90.60;;;;;;5094637;28;20513;-72
2022/12/02 04:16:45;;;;;;;6.28;2.53;;;4.40;90.60;;;;;;5095068;28;20073;-72
2022/12/02 04:19:12;;;;;;;5.93;2.63;;;4.40;90.60;;;;;;5112914;28;20088;-72
2022/12/02 04:21:37;;;;;;;6.88;2.60;;;4.40;90.60;;;;;;5112873;28;20051;-72
2022/12/02 04:24:03;;;;;;;7.55;2.67;;;4.30;90.60;;;;;;5113107;28;20404;-72
2022/12/02 04:26:29;;;;;;;5.30;2.45;;;4.30;90.70;;;;;;5094599;28;20035;-72
2022/12/02 04:28:54;;;;;;;5.85;2.17;;;4.30;90.70;;;;;;5112742;28;20042;-72
2022/12/02 04:31:20;;;;;;;3.42;1.60;;;4.30;90.70;;;;;;5112762;28;20493;-72
2022/12/02 04:33:46;;;;;;;5.22;2.15;;;4.30;90.70;;;;;;5113228;28;20114;-72
2022/12/02 04:36:11;;;;;;;5.32;2.10;;;4.30;90.70;;;;;;5112870;28;20068;-72
2022/12/02 04:38:37;;;;;;;4.72;2.28;;;4.40;90.60;;;;;;5113190;28;20035;-72
2022/12/02 04:41:02;;;;;;;5.53;2.00;;;4.30;90.60;;;;;;5112915;28;20082;-72
2022/12/02 04:43:28;;;;;;;6.07;2.17;;;4.30;90.60;;;;;;5112311;28;20110;-72
2022/12/02 04:45:53;;;;;;;5.63;1.95;;;4.30;90.60;;;;;;5112560;28;20039;-72
2022/12/02 04:48:19;;;;;;;4.50;2.00;;;4.30;90.60;;;;;;5094347;28;20426;-72
2022/12/02 04:50:45;;;;;;;4.50;1.85;;;4.30;90.70;;;;;;5112417;28;20039;-72
2022/12/02 04:53:10;;;;;;;4.68;2.17;;;4.40;90.70;;;;;;5112488;28;20074;-72
2022/12/02 04:55:36;;;;;;;6.15;2.30;;;4.30;90.60;;;;;;5112417;28;20134;-71
2022/12/02 04:58:01;;;;;;;3.75;1.75;;;4.30;90.70;;;;;;5112426;28;20039;-71
2022/12/02 05:00:27;;;;;;;5.55;2.10;;;4.20;90.70;;;;;;5112520;28;20035;-72
2022/12/02 05:02:53;;;;;;;4.30;1.80;;;4.20;90.70;;;;;;5112451;28;20050;-72
2022/12/02 05:05:18;;;;;;;6.72;2.30;;;4.20;90.70;;;;;;5112494;28;20067;-72
2022/12/02 05:07:44;;;;;;;6.65;2.35;;;4.30;90.80;;;;;;5112504;28;20035;-72
2022/12/02 05:10:09;;;;;;;3.65;1.70;;;4.20;90.70;;;;;;5112528;28;20105;-72
2022/12/02 05:12:35;;;;;;;3.92;1.75;;;4.20;90.80;;;;;;5112425;28;20472;-72
2022/12/02 05:15:01;;;;;;;4.68;1.92;;;4.20;90.70;;;;;;5112477;28;20381;-71
2022/12/02 05:17:26;;;;;;;4.15;1.65;;;4.20;90.70;;;;;;5112862;28;20036;-72
2022/12/02 05:19:52;;;;;;;3.25;1.55;;;4.20;90.70;;;;;;5094160;28;20147;-71
2022/12/02 05:22:18;;;;;;;4.47;1.98;;;4.30;90.80;;;;;;5093929;28;20085;-72
2022/12/02 05:24:46;;;;;;;4.53;2.13;;;4.20;90.70;;;;;;5112256;28;20040;-72
2022/12/02 05:27:11;;;;;;;4.35;1.83;;;4.20;90.70;;;;;;5112065;28;20040;-72
2022/12/02 05:29:37;;;;;;;5.35;1.80;;;4.20;90.70;;;;;;5112113;28;20529;-72
2022/12/02 05:32:03;;;;;;;3.75;1.67;;;4.20;90.70;;;;;;5112196;28;20127;-71
2022/12/02 05:34:29;;;;;;;5.45;2.00;;;4.20;90.70;;;;;;5111984;28;20071;-72
2022/12/02 05:36:54;;;;;;;3.20;1.48;;;4.20;90.70;;;;;;5112418;28;20545;-72
2022/12/02 05:39:20;;;;;;;4.43;1.70;;;4.20;90.70;;;;;;5093777;28;20393;-72
2022/12/02 05:41:47;;;;;;;5.25;2.05;;;4.20;90.60;;;;;;5112371;28;20047;-71
2022/12/02 05:44:27;;;;;;;4.85;1.90;;;4.10;90.60;;;;;;5093460;28;20039;-71
2022/12/02 05:47:00;;;;;;;5.15;1.77;;;4.10;90.60;;;;;;5112441;28;20039;-72
2022/12/02 05:49:27;;;;;;;4.70;1.75;;;4.10;90.60;;;;;;5112256;28;20046;-72
2022/12/02 05:51:56;;;;;;;4.68;1.88;;;4.10;90.60;;;;;;5111907;28;20073;-72
2022/12/02 05:54:21;;;;;;;5.13;2.00;;;4.10;90.60;;;;;;5112427;28;20047;-72
2022/12/02 05:56:48;;;;;;;3.65;1.50;;;4.10;90.60;;;;;;5097265;28;20101;-72
2022/12/02 05:59:16;;;;;;;4.78;1.88;;;4.10;90.60;;;;;;5115497;28;20059;-72
2022/12/02 06:01:45;;;;;;;4.22;1.90;;;4.10;90.60;;;;;;5115245;28;20074;-72
2022/12/02 06:04:15;;;;;;;3.72;1.70;;;4.10;90.60;;;;;;5115167;28;20108;-72
2022/12/02 06:06:40;;;;;;;4.80;1.73;;;4.10;90.60;;;;;;5115673;28;20035;-72
2022/12/02 06:09:16;;;;;;;4.60;1.90;;;4.10;90.60;;;;;;5115331;28;20050;-72
2022/12/02 06:11:43;;;;;;;5.38;1.98;;;4.10;90.50;;;;;;5115762;28;20062;-72
2022/12/02 06:14:30;;;;;;;3.92;1.90;;;4.10;90.50;;;;;;5115086;28;20035;-72
2022/12/02 06:17:00;;;;;;;4.18;1.80;;;4.10;90.50;;;;;;5115568;28;20039;-72
2022/12/02 06:19:29;;;;;;;4.70;1.95;;;4.10;90.60;;;;;;5096801;28;20112;-71
2022/12/02 06:21:58;;;;;;;3.70;1.98;;;4.10;90.50;;;;;;5114796;28;20044;-72
2022/12/02 06:24:28;;;;;;;4.40;1.92;;;4.10;90.50;;;;;;5115320;28;20062;-72
2022/12/02 06:26:57;;;;;;;4.05;2.00;;;4.00;90.50;;;;;;5115016;28;20051;-72
2022/12/02 06:29:23;;;;;;;4.45;2.22;;;4.00;90.60;;;;;;5114975;28;20042;-72
2022/12/02 06:31:48;;;;;;;5.28;2.03;;;4.00;90.60;;;;;;5115333;28;20032;-71
2022/12/02 06:34:37;;;;;;;5.65;2.03;;;4.00;90.60;;;;;;5115249;28;20363;-72
2022/12/02 06:37:20;;;;;;;4.00;1.73;;;4.00;90.60;;;;;;5115411;28;20061;-72
2022/12/02 06:39:52;;;;;;;4.68;1.88;;;4.00;90.60;;;;;;5114989;28;20035;-72
2022/12/02 06:42:27;;;;;;;6.72;1.73;;;4.00;90.60;;;;;;5114987;28;20040;-72
2022/12/02 06:45:08;;;;;;;4.53;2.30;;;4.00;90.60;;;;;;5096341;28;20452;-73
2022/12/02 06:47:47;;;;;;;4.70;2.15;;;4.00;90.60;;;;;;5114544;28;20055;-73
2022/12/02 06:50:24;;;;;;;5.60;2.20;;;3.90;90.50;;;;;;5096225;28;20051;-73
2022/12/02 06:52:50;;;;;;;4.95;2.22;;;3.90;90.50;;;;;;5114545;28;20569;-72
2022/12/02 06:55:32;;;;;;;5.70;2.45;;;3.90;90.50;;;;;;5096836;28;20375;-73
2022/12/02 06:58:21;;;;;;;5.22;2.33;;;3.90;90.60;;;;;;5114759;28;20112;-73
2022/12/02 07:00:47;;;;;;;5.28;2.22;;;4.00;90.60;;;;;;5114355;28;20841;-73
2022/12/02 07:03:29;;;;;;;4.97;2.10;;;3.80;90.60;;;;;;5114471;28;20035;-72
2022/12/02 07:06:00;;;;;;;4.15;2.08;;;3.90;90.60;;;;;;5094247;28;20044;-73
2022/12/02 07:08:25;;;;;;;5.10;1.90;;;3.90;90.60;;;;;;5114222;28;20051;-73
2022/12/02 07:10:51;;;;;;;5.50;2.20;;;3.90;90.60;;;;;;5114849;28;20039;-73
2022/12/02 07:13:18;;;;;;;4.03;2.00;;;4.00;90.60;;;;;;5114014;28;20127;-73
2022/12/02 07:15:44;;;;;;;5.65;2.13;;;3.80;90.60;;;;;;5113844;28;20554;-73
2022/12/02 07:18:13;;;;;;;4.95;2.22;;;3.80;90.60;;;;;;5114153;28;20040;-73
2022/12/02 07:20:43;;;;;;;4.32;1.95;;;3.90;90.60;;;;;;5095814;28;20070;-73
2022/12/02 07:23:20;;;;;;;4.75;2.10;;;3.90;90.60;;;;;;5113945;28;20397;-73
2022/12/02 07:25:50;;;;;;;5.43;2.15;;;3.80;90.60;;;;;;5113960;28;20032;-73
2022/12/02 07:28:24;;;;;;;4.10;1.98;;;3.80;90.60;;;;;;5114432;28;20062;-73
2022/12/02 07:31:26;;;;;;;4.65;2.08;;;3.90;90.60;;;;;;5114556;28;20056;-73
2022/12/02 07:33:52;;;;;;;5.28;2.20;;;3.80;90.60;;;;;;5114059;28;20148;-73
2022/12/02 07:36:17;;;;;;;4.82;2.30;;;3.80;90.60;;;;;;5114191;28;20067;-73
2022/12/02 07:38:43;;;;;;;4.90;2.53;;;3.90;90.70;;;;;;5095359;28;20039;-73
2022/12/02 07:41:09;;;;;;;6.55;2.22;;;3.80;90.60;;;;;;5114278;28;20504;-73
2022/12/02 07:43:35;;;;;;;4.72;2.10;;;3.80;90.60;;;;;;5113897;28;20075;-74
2022/12/02 07:46:00;;;;;;;5.90;2.10;;;3.70;90.60;;;;;;5096289;28;20040;-73
2022/12/02 07:48:33;;;;;;;3.75;1.83;;;3.70;90.70;;;;;;5113736;28;20142;-76
2022/12/02 08:01:55;;;;;;;5.22;2.22;;;3.80;90.80;;;;;;4944282;29;20075;-75
2022/12/02 08:07:37;;;;;;;4.95;2.10;;;3.70;90.70;;;;;;4842173;29;20057;-73
2022/12/02 08:10:29;;;;;;;4.05;1.92;;;3.60;90.70;;;;;;4821581;29;20111;-73
2022/12/02 08:15:54;;;;;;;4.40;1.92;;;3.70;90.80;;;;;;4791778;29;20541;-74
2022/12/02 08:18:30;;;;;;;3.75;1.80;;;3.60;90.80;;;;;;4787461;29;20043;-75
2022/12/02 08:20:55;;;;;;;4.00;1.90;;;3.60;90.80;;;;;;4772625;29;20147;-74
2022/12/02 08:23:31;;;;;;;5.57;2.10;;;3.70;90.80;;;;;;4804780;29;20046;-75
2022/12/02 08:26:35;;;;;;;4.90;2.08;;;3.70;90.80;;;;;;4785495;29;20073;-74
2022/12/02 08:29:22;;;;;;;4.18;2.03;;;3.60;90.80;;;;;;4748835;30;20101;-74
2022/12/02 08:33:02;;;;;;;4.43;1.80;;;3.70;90.80;;;;;;4765971;30;20565;-75
2022/12/02 08:35:53;;;;;;;3.92;1.80;;;3.70;90.80;;;;;;4713969;30;20157;-76
2022/12/02 08:39:05;;;;;;;5.20;1.98;;;3.70;90.80;;;;;;4711282;30;20146;-75
2022/12/02 08:42:15;;;;;;;;;;;3.70;90.80;;;;;;4749197;30;20040;-75
2022/12/02 08:44:43;;;;;;;5.20;1.92;;;3.70;90.80;;;;;;4774390;29;19917;-74
2022/12/02 08:47:09;;;;;;;4.72;2.25;;;3.70;90.80;;;;;;4793899;29;20086;-73
2022/12/02 08:49:34;;;;;;;4.38;1.90;;;3.70;90.80;;;;;;4802987;29;20070;-75
2022/12/02 08:55:41;;;;;;;5.03;2.03;;;3.80;90.80;;;;;;4775991;29;20210;-74
2022/12/02 08:58:43;;;;;;;6.25;2.45;;;3.70;90.80;;;;;;4802502;29;20078;-75
2022/12/02 09:01:23;;;;;;;;;;;3.70;90.80;;;;;;4771442;29;20606;-75
2022/12/02 09:04:36;;;;;;;5.35;2.15;;;3.70;90.70;;;;;;4785380;29;19918;-76
2022/12/02 09:07:02;;;;;;;7.70;1.95;;;3.70;90.80;;;;;;4961330;28;20422;-75
2022/12/02 09:09:36;;;;;;;5.32;2.05;;;3.70;90.70;;;;;;4955887;28;20144;-73
2022/12/02 09:26:44;;;;;;;5.38;2.13;;;3.80;90.70;;;;;;4847241;29;20069;-74
2022/12/02 09:29:09;;;;;;;5.78;2.38;;;3.80;90.70;;;;;;4801999;29;20047;-74
2022/12/02 09:31:35;;;;;;;7.45;2.83;;;3.80;90.70;;;;;;4809156;29;20629;-73
2022/12/02 09:34:00;;;;;;;7.20;2.33;;;3.90;90.70;;;;;;4806080;29;20482;-74
2022/12/02 09:36:26;;;;;;;6.70;2.80;;;4.00;90.70;;;;;;4806039;29;20047;-74
2022/12/02 09:38:52;;;;;;;6.03;2.10;;;3.90;90.70;;;;;;4806026;29;20051;-74
2022/12/02 09:41:18;;;;;;;5.35;2.30;;;3.90;90.60;;;;;;4805941;29;20055;-72
2022/12/02 09:43:43;;;;;;;5.35;2.28;;;4.00;90.60;;;;;;4805615;29;20166;-73
2022/12/02 09:46:09;;;;;;;5.57;2.22;;;4.00;90.60;;;;;;4832967;29;20183;-72
2022/12/02 09:48:36;;;;;;;5.47;2.50;;;4.00;90.60;;;;;;4861159;29;20053;-72
2022/12/02 09:51:02;;;;;;;6.25;2.67;;;4.00;90.50;;;;;;4928352;29;20051;-73
2022/12/02 09:53:35;;;;;;;6.43;2.08;;;4.00;90.50;;;;;;4935329;28;20405;-73
2022/12/02 09:56:01;;;;;;;6.10;2.40;;;4.00;90.60;;;;;;4975737;28;20154;-73
2022/12/02 09:58:27;;;;;;;6.93;2.53;;;4.10;90.60;;;;;;4996533;28;20075;-74
2022/12/02 10:00:53;;;;;;;6.47;2.50;;;4.10;90.60;;;;;;5099361;28;20039;-75
2022/12/02 10:03:24;;;;;;;7.35;2.42;;;4.00;90.50;;;;;;5108354;28;20097;-76
2022/12/02 10:05:50;;;;;;;5.57;2.27;;;4.10;90.50;;;;;;5098204;28;20353;-73
2022/12/02 10:08:21;;;;;;;4.55;1.90;;;4.10;90.50;;;;;;5082271;28;20035;-73
2022/12/02 10:10:47;;;;;;;6.30;2.55;;;4.10;90.50;;;;;;5103908;28;20073;-73
2022/12/02 10:13:17;;;;;;;5.00;1.88;;;4.20;90.60;;;;;;5117526;28;20096;-74
2022/12/02 10:15:43;;;;;;;4.13;1.95;;;4.20;90.60;;;;;;5122597;28;20044;-74
2022/12/02 10:18:15;;;;;;;4.85;2.20;;;4.30;90.60;;;;;;5101099;28;20043;-76
2022/12/02 10:20:41;;;;;;;;;;;4.40;90.50;;;;;;5088638;28;20090;-75
2022/12/02 10:23:27;;;;;;;5.82;2.38;;;4.30;90.70;;;;;;5098803;28;20315;-76
2022/12/02 10:26:08;;;;;;;6.82;2.63;;;4.20;90.40;;;;;;5120617;28;20486;-75
2022/12/02 10:28:36;;;;;;;6.22;2.10;;;4.20;90.70;;;;;;5118074;28;20039;-75
2022/12/02 10:31:11;;;;;;;6.88;2.70;;;4.30;90.50;;;;;;5117095;28;20431;-74
2022/12/02 10:33:40;;;;;;;5.05;2.22;;;4.30;90.50;;;;;;5120128;28;20396;-75
2022/12/02 10:36:06;;;;;;;4.80;2.03;;;4.30;90.50;;;;;;5105752;28;20397;-75
2022/12/02 10:38:42;;;;;;;5.50;2.35;;;4.30;90.40;;;;;;5118085;28;20036;-75
2022/12/02 10:41:23;;;;;;;7.22;2.72;;;4.40;90.40;;;;;;5098902;28;20103;-74
2022/12/02 10:44:02;;;;;;;5.68;2.25;;;4.40;90.30;;;;;;5117306;28;20031;-73
2022/12/02 10:46:28;;;;;;;6.03;2.15;;;4.50;90.30;;;;;;5101143;28;20489;-74
2022/12/02 10:49:15;;;;;;;5.32;2.22;;;4.50;90.30;;;;;;5097255;28;20051;-75
2022/12/02 10:51:41;;;;;;;5.32;2.20;;;4.40;90.20;;;;;;5101952;28;20112;-74
2022/12/02 10:54:19;;;;;;;5.47;2.50;;;4.40;90.20;;;;;;5085062;28;20051;-74
2022/12/02 10:56:45;;;;;;;6.60;2.75;;;4.50;90.30;;;;;;5083657;28;20040;-75
2022/12/02 10:59:14;;;;;;;5.35;2.30;;;4.30;90.30;;;;;;5116630;28;20409;-74
2022/12/02 11:01:41;;;;;;;5.38;2.33;;;4.30;90.30;;;;;;5101805;28;20119;-73
2022/12/02 11:04:20;;;;;;;5.55;2.17;;;4.30;90.40;;;;;;5124729;28;20040;-75
2022/12/02 11:06:48;;;;;;;5.65;2.30;;;4.20;90.30;;;;;;5087694;28;20055;-75
2022/12/02 11:09:17;;;;;;;5.22;2.30;;;4.20;90.40;;;;;;5098543;28;20051;-74
2022/12/02 11:11:47;;;;;;;5.88;2.30;;;4.20;90.40;;;;;;5125020;28;20059;-74
2022/12/02 11:14:34;;;;;;;4.97;2.00;;;4.20;90.40;;;;;;5116350;28;20042;-73
2022/12/02 11:17:09;;;;;;;6.57;2.08;;;4.20;90.40;;;;;;5100539;28;20113;-72
2022/12/02 11:19:44;;;;;;;6.82;2.15;;;4.10;90.50;;;;;;5077269;28;20040;-73
2022/12/02 11:22:44;;;;;;;6.22;2.35;;;4.00;90.50;;;;;;5096665;28;20032;-72
2022/12/02 11:25:46;;;;;;;6.13;2.10;;;4.10;90.50;;;;;;5113955;28;20094;-72
2022/12/02 11:28:37;;;;;;;4.18;1.98;;;4.00;90.50;;;;;;5113836;28;20035;-73
2022/12/02 11:31:21;;;;;;;4.72;1.95;;;4.20;90.60;;;;;;5114166;28;20114;-74
2022/12/02 11:34:01;;;;;;;5.63;2.10;;;4.10;90.50;;;;;;5096728;28;20046;-74
2022/12/02 11:36:29;;;;;;;5.10;2.25;;;4.10;90.40;;;;;;5078528;28;20027;-73
2022/12/02 11:39:19;;;;;;;5.68;2.30;;;4.10;90.40;;;;;;5113687;28;20043;-74
2022/12/02 11:42:25;;;;;;;4.93;2.40;;;4.10;90.40;;;;;;5057919;28;20041;-73
2022/12/02 11:44:52;;;;;;;4.70;2.00;;;4.00;90.40;;;;;;5050885;28;20075;-74
2022/12/02 11:47:33;;;;;;;4.60;1.92;;;4.10;90.70;;;;;;5037515;28;20147;-72
2022/12/02 11:50:21;;;;;;;5.68;2.30;;;4.10;90.40;;;;;;5054038;28;20086;-73
2022/12/02 11:52:55;;;;;;;5.50;1.85;;;4.10;90.30;;;;;;5070487;28;20055;-73
2022/12/02 11:55:29;;;;;;;5.43;1.83;;;4.10;90.30;;;;;;5071061;28;20536;-72
2022/12/02 11:57:57;;;;;;;5.05;1.73;;;4.10;90.30;;;;;;5054891;28;20068;-72
2022/12/02 12:00:30;;;;;;;4.60;2.10;;;4.20;90.40;;;;;;5071958;28;20047;-74
2022/12/02 12:03:16;;;;;;;4.03;2.05;;;4.20;90.30;;;;;;5056033;28;20040;-73
2022/12/02 12:06:05;;;;;;;4.90;2.03;;;4.20;90.30;;;;;;5071451;28;20051;-73
2022/12/02 12:08:31;;;;;;;7.10;2.60;;;4.10;90.30;;;;;;5055334;28;20502;-74
2022/12/02 12:11:16;;;;;;;5.07;2.47;;;4.20;90.30;;;;;;5075386;28;20036;-74
2022/12/02 12:14:02;;;;;;;4.32;2.05;;;4.20;90.30;;;;;;5098406;28;20078;-75
2022/12/02 12:16:35;;;;;;;6.07;2.17;;;4.20;90.20;;;;;;5114059;28;20047;-73
2022/12/02 12:19:27;;;;;;;4.13;2.05;;;4.30;90.20;;;;;;5113539;28;20527;-73
2022/12/02 12:22:27;;;;;;;5.32;2.15;;;4.30;90.20;;;;;;5087602;28;20088;-75
2022/12/02 12:25:55;;;;;;;4.93;1.92;;;4.30;90.10;;;;;;5120466;28;20047;-75
2022/12/02 12:28:39;;;;;;;6.07;2.13;;;4.40;90.10;;;;;;5114242;28;20044;-73
2022/12/02 12:31:06;;;;;;;6.05;2.40;;;4.40;90.00;;;;;;5114891;28;20050;-74
2022/12/02 12:33:31;;;;;;;6.07;1.77;;;4.50;90.00;;;;;;5100190;28;20118;-74
2022/12/02 12:35:58;;;;;;;5.15;2.10;;;4.40;90.00;;;;;;5096082;28;20055;-73
2022/12/02 12:38:27;;;;;;;5.15;1.95;;;4.40;90.00;;;;;;5095877;28;20508;-74
2022/12/02 12:40:56;;;;;;;6.25;1.95;;;4.40;90.00;;;;;;5114287;28;20035;-74
2022/12/02 12:43:22;;;;;;;5.43;1.88;;;4.50;90.00;;;;;;5063241;28;20126;-73
2022/12/02 12:45:48;;;;;;;5.28;2.13;;;4.50;90.00;;;;;;5115315;28;20044;-75
2022/12/02 12:48:13;;;;;;;5.65;2.13;;;4.60;90.00;;;;;;5078549;28;20497;-74
2022/12/02 12:50:39;;;;;;;6.22;2.30;;;4.50;89.80;;;;;;5095080;28;20046;-74
2022/12/02 12:53:05;;;;;;;4.97;2.20;;;4.50;89.80;;;;;;5104469;28;20039;-74
2022/12/02 12:55:30;;;;;;;4.35;1.70;;;4.50;89.80;;;;;;5124777;28;20063;-74
2022/12/02 12:57:56;;;;;;;4.38;2.10;;;4.50;89.80;;;;;;5084334;28;20094;-74
2022/12/02 13:00:24;;;;;;;4.47;2.15;;;4.50;89.80;;;;;;5109053;28;20108;-75
2022/12/02 13:02:49;;;;;;;4.25;2.00;;;4.60;89.80;;;;;;5096110;28;20050;-73
2022/12/02 13:05:15;;;;;;;5.40;2.13;;;4.70;89.90;;;;;;5114193;28;20393;-73
2022/12/02 13:07:41;;;;;;;4.53;2.00;;;4.60;89.80;;;;;;5116667;28;20043;-74
2022/12/02 13:10:07;;;;;;;4.35;1.77;;;4.50;89.70;;;;;;5117073;28;20079;-76
2022/12/02 13:12:33;;;;;;;4.57;1.98;;;4.60;89.80;;;;;;5103182;28;20125;-74
2022/12/02 13:15:05;;;;;;;4.70;1.90;;;4.50;89.70;;;;;;5118464;28;20131;-77
2022/12/02 13:29:31;;;;;;;5.40;1.92;;;4.40;89.80;;;;;;5040949;28;20147;-76
2022/12/02 13:32:23;;;;;;;5.47;1.83;;;4.40;89.80;;;;;;5052395;28;20098;-78
2022/12/02 13:54:19;;;;;;;3.95;1.95;;;4.10;89.90;;;;;;4954211;29;20137;-74
2022/12/02 14:15:28;;;;;;;5.35;2.42;;;3.80;90.10;;;;;;4821598;29;20073;-79
2022/12/02 14:48:53;;;;;;;9.25;4.30;;;3.70;90.00;;;;;;5210651;23;20113;-81
2022/12/02 14:51:54;;;;;;;8.25;3.80;;;3.70;90.00;;;;;;4977402;28;20074;-78
2022/12/02 15:01:56;;;;;;;7.13;3.60;;;3.60;90.00;;;;;;4893820;29;20100;-78
2022/12/02 15:40:52;;;;;;;12.30;5.00;;;3.30;90.00;;;;;;4766433;30;20055;-80
2022/12/02 15:43:18;;;;;;;11.45;5.43;;;3.40;90.00;;;;;;4750875;30;20148;-81
2022/12/02 15:50:41;;;;;;;8.52;4.13;;;3.40;90.00;;;;;;4770054;30;20058;-80
2022/12/02 15:57:05;;;;;;;11.68;4.90;;;3.40;90.00;;;;;;4676315;30;20133;-79
2022/12/02 16:00:09;;;;;;;;;;;3.40;90.00;;;;;;4660897;30;20525;-78
2022/12/02 16:10:05;;;;;;;9.70;4.85;;;3.30;89.90;;;;;;5127594;27;20139;-79
2022/12/02 16:13:35;;;;;;;10.27;4.93;;;3.30;89.90;;;;;;4986826;28;20197;-79
2022/12/02 16:16:01;;;;;;;9.95;4.85;;;3.30;89.90;;;;;;4913385;29;20048;-79
2022/12/02 16:18:27;;;;;;;11.48;5.22;;;3.20;89.90;;;;;;4911498;29;20188;-79